Time;durP1;ratioP1;P1;durP2;ratioP2;P2;SDS_P1;SDS_P2;PMS_P1;PMS_P2;Temp;Humidity;BMP_temperature;BMP_pressure;BME280_temperature;BME280_humidity;BME280_pressure;Samples;Min_cycle;Max_cycle;Signal;HPM_P1;HPM_P2
2022/08/11 00:02:29;;;;;;;7.32;5.30;;;18.00;99.90;;;;;;5111325;28;20024;-70
2022/08/11 00:04:56;;;;;;;7.03;5.35;;;17.90;99.90;;;;;;5111034;28;20411;-70
2022/08/11 00:07:22;;;;;;;;;;;17.90;99.90;;;;;;5111699;28;20027;-70
2022/08/11 00:09:48;;;;;;;6.45;4.80;;;17.90;99.90;;;;;;5111133;28;19908;-70
2022/08/11 00:12:16;;;;;;;7.37;5.17;;;17.90;99.90;;;;;;5109379;28;20041;-70
2022/08/11 00:14:43;;;;;;;7.10;4.95;;;17.80;99.90;;;;;;5109888;28;20026;-69
2022/08/11 00:17:11;;;;;;;7.60;5.22;;;17.90;99.90;;;;;;5111209;28;20036;-69
2022/08/11 00:19:42;;;;;;;8.68;5.47;;;17.80;99.90;;;;;;5109500;28;20027;-69
2022/08/11 00:22:09;;;;;;;7.60;5.65;;;17.80;99.90;;;;;;5110855;28;20027;-71
2022/08/11 00:24:37;;;;;;;8.63;5.68;;;17.70;99.90;;;;;;5111043;28;20551;-71
2022/08/11 00:27:04;;;;;;;7.45;5.68;;;17.70;99.90;;;;;;5110825;28;20115;-68
2022/08/11 00:29:31;;;;;;;7.40;5.72;;;17.70;99.90;;;;;;5109504;28;20028;-69
2022/08/11 00:32:00;;;;;;;7.40;5.60;;;17.60;99.90;;;;;;5110777;28;20043;-70
2022/08/11 00:34:29;;;;;;;7.30;5.30;;;17.60;99.90;;;;;;5109492;28;20038;-71
2022/08/11 00:37:00;;;;;;;7.55;5.50;;;17.60;99.90;;;;;;5110880;28;20032;-69
2022/08/11 00:39:27;;;;;;;8.45;6.10;;;17.60;99.90;;;;;;5109497;28;20059;-72
2022/08/11 00:42:04;;;;;;;9.48;5.35;;;17.60;99.90;;;;;;5109980;28;20038;-69
2022/08/11 00:44:55;;;;;;;7.53;5.70;;;17.50;99.90;;;;;;5110938;28;20043;-69
2022/08/11 00:47:40;;;;;;;6.85;5.43;;;17.50;99.90;;;;;;5108943;28;20032;-69
2022/08/11 00:50:20;;;;;;;7.97;5.25;;;17.50;99.90;;;;;;5108987;28;20372;-69
2022/08/11 00:53:07;;;;;;;8.65;5.82;;;17.60;99.90;;;;;;5109636;28;20616;-69
2022/08/11 00:55:42;;;;;;;7.32;5.63;;;17.60;99.90;;;;;;5110133;28;20048;-69
2022/08/11 00:58:45;;;;;;;9.73;6.03;;;17.60;99.90;;;;;;5110179;28;20041;-70
2022/08/11 01:01:16;;;;;;;8.50;5.93;;;17.50;99.90;;;;;;5110132;28;20100;-70
2022/08/11 01:03:48;;;;;;;8.00;6.10;;;17.50;99.90;;;;;;5110436;28;20475;-68
2022/08/11 01:06:16;;;;;;;7.65;5.63;;;17.50;99.90;;;;;;5110537;28;20371;-70
2022/08/11 01:08:54;;;;;;;7.07;5.35;;;17.50;99.90;;;;;;5110172;28;20411;-69
2022/08/11 01:11:44;;;;;;;8.23;5.53;;;17.50;99.90;;;;;;5109824;28;20020;-68
2022/08/11 01:14:10;;;;;;;7.28;5.38;;;17.50;99.90;;;;;;5110255;28;20034;-68
2022/08/11 01:17:13;;;;;;;8.10;5.70;;;17.50;99.90;;;;;;5110192;28;20032;-69
2022/08/11 01:20:16;;;;;;;8.05;5.72;;;17.50;99.90;;;;;;5110430;28;20058;-71
2022/08/11 01:23:13;;;;;;;9.40;5.30;;;17.50;99.90;;;;;;5109832;28;20070;-68
2022/08/11 01:26:28;;;;;;;7.70;5.93;;;17.50;99.90;;;;;;5108816;28;20071;-72
2022/08/11 01:29:23;;;;;;;7.32;5.20;;;17.50;99.90;;;;;;5108766;28;20032;-69
2022/08/11 01:32:20;;;;;;;7.10;5.10;;;17.50;99.90;;;;;;5108551;28;20030;-70
2022/08/11 01:34:55;;;;;;;7.95;6.00;;;17.50;99.90;;;;;;5110048;28;20027;-69
2022/08/11 01:37:51;;;;;;;6.60;4.97;;;17.50;99.90;;;;;;5108962;28;20024;-70
2022/08/11 01:40:29;;;;;;;7.80;5.70;;;17.50;99.90;;;;;;5108095;28;20169;-69
2022/08/11 01:46:35;;;;;;;7.20;5.28;;;17.50;99.90;;;;;;5109740;28;20034;-69
2022/08/11 01:49:20;;;;;;;8.30;5.30;;;17.50;99.90;;;;;;5108646;28;20031;-69
2022/08/11 01:51:50;;;;;;;7.40;5.18;;;17.50;99.90;;;;;;5109848;28;20022;-69
2022/08/11 01:54:51;;;;;;;11.05;6.22;;;17.40;99.90;;;;;;5108590;28;20020;-69
2022/08/11 01:57:27;;;;;;;7.65;5.50;;;17.40;99.90;;;;;;5110398;28;20044;-68
2022/08/11 02:00:08;;;;;;;6.95;5.28;;;17.40;99.90;;;;;;5109638;28;20502;-68
2022/08/11 02:02:55;;;;;;;7.57;5.82;;;17.40;99.90;;;;;;5110134;28;20027;-70
2022/08/11 02:05:48;;;;;;;7.00;4.90;;;17.40;99.90;;;;;;5113778;28;20070;-69
2022/08/11 02:08:20;;;;;;;7.65;5.32;;;17.40;99.90;;;;;;5112306;28;20483;-70
2022/08/11 02:14:01;;;;;;;8.23;5.07;;;17.40;99.90;;;;;;5113994;28;20168;-69
2022/08/11 02:16:55;;;;;;;9.30;5.10;;;17.40;99.90;;;;;;5113427;28;20035;-70
2022/08/11 02:25:57;;;;;;;6.40;4.80;;;17.30;99.90;;;;;;5093316;28;20078;-69
2022/08/11 02:28:55;;;;;;;8.30;5.63;;;17.30;99.90;;;;;;5092827;28;20060;-68
2022/08/11 02:34:26;;;;;;;8.10;5.20;;;17.30;99.90;;;;;;5092986;28;20494;-70
2022/08/11 02:37:15;;;;;;;7.20;5.63;;;17.30;99.90;;;;;;5092914;28;20119;-70
2022/08/11 02:40:30;;;;;;;6.30;4.88;;;17.20;99.90;;;;;;5096170;28;20024;-70
2022/08/11 02:43:13;;;;;;;7.93;6.07;;;17.30;99.90;;;;;;5103877;28;20408;-69
2022/08/11 02:45:48;;;;;;;7.22;5.30;;;17.30;99.90;;;;;;5112741;28;20485;-69
2022/08/11 02:51:41;;;;;;;6.75;5.40;;;17.30;99.90;;;;;;5112792;28;20038;-69
2022/08/11 02:54:16;;;;;;;7.00;5.32;;;17.20;99.90;;;;;;5112856;27;20023;-69
2022/08/11 02:56:57;;;;;;;6.95;5.28;;;17.30;99.90;;;;;;5112602;28;20382;-68
2022/08/11 02:59:50;;;;;;;6.97;5.47;;;17.30;99.90;;;;;;5112780;28;20035;-68
2022/08/11 03:02:26;;;;;;;6.10;5.00;;;17.30;99.90;;;;;;5112594;27;20499;-69
2022/08/11 03:05:10;;;;;;;7.65;5.65;;;17.20;99.90;;;;;;5112476;28;20030;-68
2022/08/11 03:07:39;;;;;;;6.30;4.90;;;17.20;99.90;;;;;;5111317;28;20037;-69
2022/08/11 03:10:09;;;;;;;7.18;5.32;;;17.20;99.90;;;;;;5111765;28;20024;-71
2022/08/11 03:19:13;;;;;;;15.00;5.97;;;17.10;99.90;;;;;;5112363;28;20403;-69
2022/08/11 03:21:47;;;;;;;7.80;6.03;;;17.10;99.90;;;;;;5105906;28;20039;-69
2022/08/11 03:24:18;;;;;;;7.38;5.35;;;17.20;99.90;;;;;;5112310;28;20023;-69
2022/08/11 03:26:55;;;;;;;8.27;6.07;;;17.00;99.90;;;;;;5112248;28;20024;-68
2022/08/11 03:29:36;;;;;;;7.40;5.72;;;17.20;99.90;;;;;;5112002;28;20043;-68
2022/08/11 03:32:28;;;;;;;8.38;5.90;;;17.20;99.90;;;;;;5112292;28;20070;-68
2022/08/11 03:35:00;;;;;;;7.57;5.72;;;17.20;99.90;;;;;;5112155;28;20047;-69
2022/08/11 03:37:50;;;;;;;8.93;6.53;;;17.20;99.90;;;;;;5112276;28;20718;-68
2022/08/11 03:43:35;;;;;;;8.32;5.70;;;17.10;99.90;;;;;;5111715;28;20043;-70
2022/08/11 03:46:13;;;;;;;8.80;6.25;;;17.20;99.90;;;;;;5073562;28;20056;-68
2022/08/11 03:49:09;;;;;;;9.63;6.13;;;17.10;99.90;;;;;;5089644;28;20032;-70
2022/08/11 03:51:59;;;;;;;7.55;5.78;;;17.10;99.90;;;;;;5097329;28;20027;-68
2022/08/11 03:54:43;;;;;;;8.80;6.32;;;17.10;99.90;;;;;;5111483;28;20035;-71
2022/08/11 03:57:27;;;;;;;7.85;5.75;;;17.20;99.90;;;;;;5111075;28;20126;-72
2022/08/11 04:00:24;;;;;;;7.78;5.65;;;17.10;99.90;;;;;;5091229;28;20032;-70
2022/08/11 04:03:13;;;;;;;7.25;5.72;;;17.10;99.90;;;;;;5091088;28;20062;-70
2022/08/11 04:06:26;;;;;;;8.00;6.22;;;17.10;99.90;;;;;;5090950;28;20024;-69
2022/08/11 04:09:19;;;;;;;9.48;6.00;;;17.10;99.90;;;;;;5085141;28;20067;-70
2022/08/11 04:12:12;;;;;;;7.85;5.82;;;17.10;99.90;;;;;;5089551;28;20383;-69
2022/08/11 04:17:59;;;;;;;10.00;6.00;;;17.10;99.90;;;;;;5111269;28;20448;-70
2022/08/11 04:20:45;;;;;;;9.32;6.32;;;17.10;99.90;;;;;;5109771;28;20043;-70
2022/08/11 04:23:41;;;;;;;8.52;6.05;;;17.10;99.90;;;;;;5110702;28;20035;-69
2022/08/11 04:26:32;;;;;;;11.27;5.97;;;17.10;99.90;;;;;;5110443;28;20019;-69
2022/08/11 04:29:24;;;;;;;7.88;5.65;;;17.10;99.90;;;;;;5110714;28;20028;-69
2022/08/11 04:32:23;;;;;;;8.93;5.68;;;17.10;99.90;;;;;;5110900;28;20024;-69
2022/08/11 04:34:57;;;;;;;;;;;17.10;99.90;;;;;;5111250;28;20034;-69
2022/08/11 04:37:42;;;;;;;8.07;5.80;;;17.10;99.90;;;;;;5110891;28;20148;-70
2022/08/11 04:40:35;;;;;;;11.40;6.32;;;17.10;99.90;;;;;;5110960;28;20126;-71
2022/08/11 04:43:25;;;;;;;7.75;6.20;;;17.10;99.90;;;;;;5110818;28;20035;-69
2022/08/11 04:46:18;;;;;;;10.10;7.00;;;17.10;99.90;;;;;;5109225;28;20559;-70
2022/08/11 05:08:02;;;;;;;10.60;7.32;;;17.30;99.90;;;;;;5095176;28;20034;-69
2022/08/11 05:10:42;;;;;;;11.65;8.07;;;17.30;99.90;;;;;;5108982;28;20026;-69
2022/08/11 05:36:35;;;;;;;12.35;8.27;;;17.20;99.90;;;;;;5110285;28;20085;-68
2022/08/11 05:58:50;;;;;;;11.45;7.65;;;17.20;99.90;;;;;;5114171;28;20460;-69
2022/08/11 06:01:29;;;;;;;9.85;7.30;;;17.20;99.90;;;;;;5113466;28;20030;-69
2022/08/11 06:04:15;;;;;;;12.18;8.15;;;17.20;99.90;;;;;;5113667;27;20126;-69
2022/08/11 06:07:02;;;;;;;10.38;7.95;;;17.20;99.90;;;;;;5113830;28;20134;-68
2022/08/11 06:09:31;;;;;;;10.10;7.20;;;17.30;99.90;;;;;;5113451;28;20463;-70
2022/08/11 06:12:01;;;;;;;10.80;7.68;;;17.30;99.90;;;;;;5113480;28;20100;-70
2022/08/11 06:14:27;;;;;;;10.85;8.38;;;17.30;99.90;;;;;;5113040;28;20026;-70
2022/08/11 06:16:58;;;;;;;12.95;8.02;;;17.20;99.90;;;;;;5113731;28;20060;-69
2022/08/11 06:19:32;;;;;;;10.02;7.50;;;17.40;99.90;;;;;;5111473;28;21495;-71
2022/08/11 06:21:59;;;;;;;11.10;8.50;;;17.50;99.90;;;;;;5113483;28;20467;-69
2022/08/11 06:24:28;;;;;;;11.25;7.50;;;17.50;99.90;;;;;;5113396;28;20408;-69
2022/08/11 06:26:55;;;;;;;8.80;6.70;;;17.60;99.90;;;;;;5112960;28;20414;-69
2022/08/11 06:29:22;;;;;;;11.88;8.15;;;17.70;99.90;;;;;;5113419;28;20365;-69
2022/08/11 06:31:58;;;;;;;11.48;7.00;;;17.80;99.90;;;;;;5111650;28;20459;-69
2022/08/11 06:34:46;;;;;;;9.82;6.43;;;17.90;99.90;;;;;;5111760;28;20028;-69
2022/08/11 06:37:41;;;;;;;9.32;6.63;;;18.00;99.90;;;;;;5107083;28;20043;-69
2022/08/11 06:40:24;;;;;;;11.52;7.07;;;18.10;99.90;;;;;;5113056;28;20705;-69
2022/08/11 06:43:00;;;;;;;9.90;6.47;;;18.10;99.90;;;;;;5113460;28;20426;-71
2022/08/11 06:45:31;;;;;;;8.30;6.77;;;18.10;99.90;;;;;;5112718;28;20111;-70
2022/08/11 06:47:59;;;;;;;9.40;6.82;;;18.10;99.90;;;;;;5113195;28;20287;-71
2022/08/11 06:53:16;;;;;;;9.50;7.07;;;18.00;99.90;;;;;;5111984;28;20043;-69
2022/08/11 07:01:46;;;;;;;9.52;7.18;;;18.00;99.90;;;;;;5112702;28;20556;-69
2022/08/11 07:04:19;;;;;;;9.82;7.15;;;18.10;99.90;;;;;;5112587;28;20043;-71
2022/08/11 07:15:58;;;;;;;9.83;7.00;;;18.10;99.90;;;;;;5092131;28;20093;-69
2022/08/11 07:29:49;;;;;;;10.32;6.15;;;18.00;99.90;;;;;;5112153;28;20435;-69
2022/08/11 07:32:25;;;;;;;10.35;7.18;;;18.10;99.90;;;;;;5110852;28;20498;-69
2022/08/11 07:34:59;;;;;;;7.97;6.03;;;18.00;99.90;;;;;;5111511;28;20088;-68
2022/08/11 07:37:27;;;;;;;8.48;6.68;;;18.00;99.90;;;;;;5112327;28;20032;-65
2022/08/11 07:39:54;;;;;;;8.43;6.78;;;18.10;99.90;;;;;;5104938;28;20024;-65
2022/08/11 07:42:22;;;;;;;7.78;6.40;;;18.10;99.90;;;;;;5102424;28;20409;-66
2022/08/11 07:53:07;;;;;;;8.18;7.20;;;18.00;99.90;;;;;;5028463;28;20149;-67
2022/08/11 07:55:34;;;;;;;8.10;6.72;;;18.10;99.90;;;;;;5081893;28;20035;-66
2022/08/11 08:20:12;;;;;;;9.98;6.88;;;18.00;99.90;;;;;;5093958;28;20034;-66
2022/08/11 08:22:38;;;;;;;9.68;7.28;;;18.10;99.90;;;;;;5100577;28;20043;-64
2022/08/11 08:25:05;;;;;;;9.20;6.32;;;18.00;99.90;;;;;;5100836;28;20034;-66
2022/08/11 08:27:33;;;;;;;8.50;6.75;;;18.00;99.90;;;;;;5101865;28;20039;-64
2022/08/11 08:32:44;;;;;;;8.10;6.55;;;18.00;99.90;;;;;;5104690;28;20049;-65
2022/08/11 08:35:10;;;;;;;8.57;6.70;;;18.00;99.90;;;;;;5104037;28;20020;-65
2022/08/11 08:37:36;;;;;;;7.55;6.05;;;18.10;99.90;;;;;;5110904;28;20062;-66
2022/08/11 08:40:05;;;;;;;8.52;5.53;;;18.10;99.90;;;;;;5110747;28;20031;-66
2022/08/11 08:42:37;;;;;;;8.38;6.05;;;18.20;99.90;;;;;;5109323;28;20392;-64
2022/08/11 08:45:06;;;;;;;8.80;6.20;;;18.20;99.90;;;;;;5110236;28;20080;-64
2022/08/11 08:47:42;;;;;;;7.13;5.28;;;18.30;99.90;;;;;;5110248;28;20032;-66
2022/08/11 08:50:12;;;;;;;6.50;5.05;;;18.40;99.90;;;;;;5110484;28;20051;-68
2022/08/11 08:52:42;;;;;;;6.53;5.30;;;18.50;99.90;;;;;;5111011;28;20035;-68
2022/08/11 08:55:15;;;;;;;7.97;4.82;;;18.50;99.90;;;;;;5110220;28;20019;-68
2022/08/11 08:57:43;;;;;;;7.20;5.15;;;18.60;99.90;;;;;;5110640;28;20031;-68
2022/08/11 09:00:09;;;;;;;6.15;4.78;;;18.70;99.90;;;;;;5110040;28;20386;-68
2022/08/11 09:02:36;;;;;;;6.78;4.68;;;18.70;99.90;;;;;;5107114;28;20085;-68
2022/08/11 09:05:03;;;;;;;6.47;4.97;;;18.70;99.90;;;;;;5091486;28;20594;-68
2022/08/11 09:07:30;;;;;;;6.47;4.60;;;18.70;99.90;;;;;;5090292;28;20040;-69
2022/08/11 09:09:57;;;;;;;;;;;18.70;99.90;;;;;;5106575;28;20071;-68
2022/08/11 09:12:27;;;;;;;6.38;4.90;;;18.70;99.90;;;;;;5110068;28;20339;-68
2022/08/11 09:15:00;;;;;;;7.43;5.50;;;18.60;99.90;;;;;;5109919;28;20482;-68
2022/08/11 09:17:29;;;;;;;7.97;5.65;;;18.60;99.90;;;;;;5110520;28;20032;-68
2022/08/11 09:19:59;;;;;;;7.43;5.50;;;18.60;99.90;;;;;;5110393;28;20434;-68
2022/08/11 09:28:17;;;;;;;10.00;6.13;;;18.60;99.90;;;;;;5109918;28;20047;-67
2022/08/11 09:30:47;;;;;;;8.02;6.10;;;18.70;99.90;;;;;;5109249;28;20027;-67
2022/08/11 09:33:15;;;;;;;7.47;6.13;;;18.70;99.90;;;;;;5110004;28;20026;-67
2022/08/11 09:35:42;;;;;;;7.55;5.65;;;18.80;99.90;;;;;;5110357;28;20028;-70
2022/08/11 09:40:59;;;;;;;8.50;5.93;;;18.80;99.90;;;;;;5089286;28;20043;-70
2022/08/11 09:46:11;;;;;;;9.18;6.65;;;18.90;99.90;;;;;;5109398;28;20409;-70
2022/08/11 09:48:43;;;;;;;7.90;6.68;;;19.00;99.90;;;;;;5109694;28;20049;-70
2022/08/11 09:51:10;;;;;;;7.72;5.53;;;19.10;99.90;;;;;;5109840;28;20380;-71
2022/08/11 09:53:41;;;;;;;8.35;6.47;;;19.30;99.90;;;;;;5108482;28;20051;-70
2022/08/11 09:59:00;;;;;;;8.20;6.10;;;19.50;99.90;;;;;;5109785;28;20030;-70
2022/08/11 10:01:30;;;;;;;8.38;6.20;;;19.70;99.90;;;;;;5109238;28;20039;-70
2022/08/11 10:04:10;;;;;;;8.48;6.43;;;19.80;99.90;;;;;;5109776;28;20343;-70
2022/08/11 10:09:23;;;;;;;7.47;6.13;;;20.20;99.90;;;;;;5107178;28;20030;-70
2022/08/11 10:11:55;;;;;;;7.45;6.22;;;20.50;99.90;;;;;;5088456;28;20056;-70
2022/08/11 10:17:08;;;;;;;7.03;5.78;;;20.90;99.90;;;;;;5101901;28;20043;-74
2022/08/11 10:19:37;;;;;;;7.43;5.93;;;21.10;99.90;;;;;;5108175;28;20024;-73
2022/08/11 10:27:40;;;;;;;7.43;6.30;;;21.60;99.90;;;;;;5113292;28;20176;-73
2022/08/11 10:35:36;;;;;;;8.70;6.30;;;21.70;99.90;;;;;;5113348;28;20068;-73
2022/08/11 10:38:03;;;;;;;8.38;6.28;;;21.70;99.90;;;;;;5111460;28;20040;-74
2022/08/11 10:40:31;;;;;;;8.05;5.63;;;21.70;99.90;;;;;;5113045;28;20031;-74
2022/08/11 10:43:02;;;;;;;7.97;6.05;;;21.70;99.90;;;;;;5111914;28;20058;-73
2022/08/11 10:48:22;;;;;;;10.07;8.10;;;21.60;99.90;;;;;;5111895;28;20123;-72
2022/08/11 10:59:08;;;;;;;7.10;5.63;;;22.90;99.90;;;;;;5112741;28;20030;-73
2022/08/11 11:01:42;;;;;;;6.40;5.68;;;23.20;99.90;;;;;;5110496;28;20072;-73
2022/08/11 11:04:16;;;;;;;8.15;6.15;;;23.50;99.90;;;;;;5112146;28;20019;-73
2022/08/11 11:07:10;;;;;;;7.22;5.70;;;23.70;99.90;;;;;;5110869;28;20031;-73
2022/08/11 11:09:52;;;;;;;7.82;6.40;;;23.60;99.90;;;;;;5112502;28;20081;-73
2022/08/11 11:18:10;;;;;;;7.07;5.50;;;24.40;99.90;;;;;;5112439;28;20046;-73
2022/08/11 11:20:39;;;;;;;7.07;6.07;;;24.60;99.90;;;;;;5110927;28;20130;-73
2022/08/11 11:23:10;;;;;;;7.78;5.57;;;24.70;99.90;;;;;;5112426;28;20066;-73
2022/08/11 11:26:05;;;;;;;6.75;5.60;;;24.80;99.90;;;;;;5110231;28;20043;-73
2022/08/11 11:28:48;;;;;;;8.25;5.97;;;24.70;99.90;;;;;;5110740;28;20040;-72
2022/08/11 11:31:40;;;;;;;6.72;5.47;;;24.60;99.90;;;;;;5112133;28;20164;-73
2022/08/11 11:34:22;;;;;;;7.45;5.20;;;24.70;99.90;;;;;;5084904;28;20253;-74
2022/08/11 11:36:57;;;;;;;6.53;5.35;;;24.80;99.90;;;;;;5091376;28;20544;-73
2022/08/11 11:39:24;;;;;;;7.18;6.22;;;24.80;99.90;;;;;;5110450;28;20028;-74
2022/08/11 11:41:52;;;;;;;7.30;5.93;;;24.70;99.90;;;;;;5111926;28;20031;-74
2022/08/11 11:44:21;;;;;;;9.32;5.93;;;24.50;99.90;;;;;;5111236;28;20118;-73
2022/08/11 11:46:48;;;;;;;6.72;6.03;;;24.40;99.90;;;;;;5110486;28;20040;-73
2022/08/11 11:49:17;;;;;;;8.40;5.72;;;24.50;99.90;;;;;;5111476;28;20020;-73
2022/08/11 11:51:45;;;;;;;6.50;5.80;;;24.40;99.90;;;;;;5111953;28;20110;-74
2022/08/11 11:54:16;;;;;;;6.80;5.63;;;24.20;99.90;;;;;;5110773;28;20024;-73
2022/08/11 11:56:44;;;;;;;7.35;5.53;;;24.10;99.90;;;;;;5110831;28;20051;-74
2022/08/11 12:01:56;;;;;;;8.75;6.75;;;23.80;99.90;;;;;;5111162;28;20124;-72
2022/08/11 12:04:22;;;;;;;6.95;5.93;;;23.60;99.90;;;;;;5111466;27;20052;-73
2022/08/11 12:06:49;;;;;;;7.53;6.38;;;23.40;99.90;;;;;;5111557;27;20054;-74
2022/08/11 12:09:17;;;;;;;9.80;6.72;;;23.30;99.90;;;;;;5111417;28;20031;-72
2022/08/11 12:14:28;;;;;;;7.57;6.20;;;23.30;99.90;;;;;;5111511;28;20062;-73
2022/08/11 12:16:55;;;;;;;9.07;6.15;;;23.50;99.90;;;;;;5109350;28;20028;-73
2022/08/11 12:19:27;;;;;;;8.18;6.28;;;23.60;99.90;;;;;;5110893;28;20449;-75
2022/08/11 12:27:26;;;;;;;9.68;6.53;;;23.90;99.90;;;;;;5110484;28;20058;-74
2022/08/11 12:29:58;;;;;;;8.75;6.53;;;24.00;99.90;;;;;;5109500;28;20080;-74
2022/08/11 12:32:27;;;;;;;7.28;6.20;;;24.00;99.90;;;;;;5109392;28;20110;-74
2022/08/11 12:34:56;;;;;;;7.53;6.25;;;23.90;99.90;;;;;;5110752;28;20222;-74
2022/08/11 12:37:28;;;;;;;8.63;6.50;;;23.90;99.90;;;;;;5110586;28;20579;-73
2022/08/11 12:45:35;;;;;;;9.80;6.80;;;23.60;99.90;;;;;;5090424;28;20043;-73
2022/08/11 12:54:09;;;;;;;9.82;7.63;;;23.30;99.90;;;;;;5110640;28;20030;-73
2022/08/11 13:05:05;;;;;;;9.38;7.57;;;22.90;99.90;;;;;;5110371;28;20038;-74
2022/08/11 13:07:32;;;;;;;9.02;6.97;;;22.90;99.90;;;;;;5110316;28;20063;-73
2022/08/11 13:10:04;;;;;;;8.35;7.45;;;23.00;99.90;;;;;;5110316;28;20028;-72
2022/08/11 13:12:46;;;;;;;9.13;7.22;;;23.00;99.90;;;;;;5110703;28;20114;-73
2022/08/11 13:15:25;;;;;;;7.70;6.90;;;23.00;99.90;;;;;;5110414;28;20033;-74
2022/08/11 13:17:53;;;;;;;9.32;7.10;;;23.00;99.90;;;;;;5110384;28;20047;-74
2022/08/11 13:20:22;;;;;;;8.73;7.80;;;22.90;99.90;;;;;;5108889;28;20487;-73
2022/08/11 13:22:50;;;;;;;8.60;7.70;;;23.00;99.90;;;;;;5110737;28;20040;-74
2022/08/11 13:25:21;;;;;;;10.88;7.82;;;23.00;99.90;;;;;;5110011;28;20034;-73
2022/08/11 13:27:49;;;;;;;8.05;7.07;;;23.00;99.90;;;;;;5090209;28;20110;-73
2022/08/11 13:33:02;;;;;;;9.88;7.93;;;23.10;99.90;;;;;;5100949;28;20034;-73
2022/08/11 13:35:30;;;;;;;9.77;8.30;;;23.20;99.90;;;;;;5110330;28;20023;-74
2022/08/11 13:37:57;;;;;;;9.20;8.30;;;23.30;99.90;;;;;;5110062;28;20046;-74
2022/08/11 13:40:24;;;;;;;10.25;8.18;;;23.50;99.90;;;;;;5103562;28;20031;-70
2022/08/11 13:42:51;;;;;;;9.13;8.23;;;23.60;99.90;;;;;;5098730;28;20031;-71
2022/08/11 13:45:18;;;;;;;12.15;8.80;;;23.70;99.90;;;;;;5100923;28;20034;-70
2022/08/11 13:47:44;;;;;;;9.32;8.43;;;23.80;99.90;;;;;;5105817;28;20028;-70
2022/08/11 13:50:13;;;;;;;10.25;9.18;;;23.90;99.90;;;;;;5100296;28;20403;-69
2022/08/11 13:52:40;;;;;;;12.23;9.55;;;23.90;99.90;;;;;;5100130;28;20034;-69
2022/08/11 13:55:09;;;;;;;12.45;9.52;;;23.90;99.90;;;;;;5100323;28;20070;-70
2022/08/11 13:57:36;;;;;;;10.70;9.23;;;23.90;99.90;;;;;;5101848;28;20052;-70
2022/08/11 14:00:12;;;;;;;10.75;9.60;;;23.90;99.90;;;;;;5102606;28;20043;-70
2022/08/11 14:02:41;;;;;;;11.27;10.18;;;23.90;99.90;;;;;;5105964;28;20135;-70
2022/08/11 14:05:14;;;;;;;10.38;9.10;;;23.80;99.90;;;;;;5113840;28;20042;-70
2022/08/11 14:07:50;;;;;;;10.35;8.95;;;23.70;99.90;;;;;;5113039;27;20118;-70
2022/08/11 14:10:19;;;;;;;13.23;9.90;;;23.70;99.90;;;;;;5102645;28;20045;-69
2022/08/11 14:15:42;;;;;;;11.63;9.45;;;23.60;99.90;;;;;;5093488;28;20484;-71
2022/08/11 14:18:16;;;;;;;11.07;9.82;;;23.50;99.90;;;;;;5098428;28;20181;-69
2022/08/11 14:23:39;;;;;;;11.70;10.05;;;23.50;99.90;;;;;;5107947;28;20076;-70
2022/08/11 14:26:25;;;;;;;;;;;23.50;99.90;;;;;;5113058;28;20067;-73
2022/08/11 14:28:53;;;;;;;12.10;10.00;;;23.50;99.90;;;;;;5092296;28;19916;-73
2022/08/11 14:31:21;;;;;;;11.52;9.60;;;23.50;99.90;;;;;;5093237;28;20028;-73
2022/08/11 14:33:47;;;;;;;13.25;9.98;;;23.60;99.90;;;;;;5101313;28;20028;-73
2022/08/11 14:36:13;;;;;;;12.05;9.00;;;23.60;99.90;;;;;;5113121;28;20039;-74
2022/08/11 14:38:40;;;;;;;12.07;10.20;;;23.60;99.90;;;;;;5111861;28;20432;-74
2022/08/11 14:49:25;;;;;;;11.82;9.80;;;23.80;99.90;;;;;;5112184;28;20110;-72
2022/08/11 14:51:53;;;;;;;11.02;9.85;;;23.90;99.90;;;;;;5112799;28;20028;-73
2022/08/11 14:57:09;;;;;;;12.10;9.43;;;23.90;99.90;;;;;;5112654;28;20082;-74
2022/08/11 14:59:36;;;;;;;11.38;9.10;;;23.80;99.90;;;;;;5112789;28;20055;-73
2022/08/11 15:04:49;;;;;;;10.13;9.02;;;23.70;99.90;;;;;;5111994;28;20171;-74
2022/08/11 15:07:15;;;;;;;12.25;10.23;;;23.60;99.90;;;;;;5112637;28;20032;-74
2022/08/11 15:09:43;;;;;;;11.10;9.90;;;23.50;99.90;;;;;;5111701;28;20020;-74
2022/08/11 15:12:17;;;;;;;12.23;10.10;;;23.40;99.90;;;;;;5111062;28;20036;-74
2022/08/11 15:17:33;;;;;;;11.40;10.15;;;23.20;99.90;;;;;;5113112;28;20391;-73
2022/08/11 15:25:35;;;;;;;12.27;10.30;;;23.10;99.90;;;;;;5112640;28;20054;-73
2022/08/11 15:39:19;;;;;;;10.30;9.13;;;22.90;99.90;;;;;;5091806;28;20082;-74
2022/08/11 15:47:34;;;;;;;11.25;9.95;;;23.00;99.90;;;;;;5091358;28;20039;-74
2022/08/11 15:50:04;;;;;;;13.13;10.45;;;23.00;99.90;;;;;;5099041;28;20095;-74
2022/08/11 15:52:36;;;;;;;10.68;9.52;;;23.00;99.90;;;;;;5110540;28;20058;-74
2022/08/11 15:55:05;;;;;;;12.30;10.05;;;23.00;99.90;;;;;;5111658;27;20020;-73
2022/08/11 16:05:49;;;;;;;13.00;10.27;;;23.10;99.90;;;;;;5105126;28;20057;-73
2022/08/11 16:08:21;;;;;;;11.32;10.20;;;23.10;99.90;;;;;;5109611;28;20043;-73
2022/08/11 16:10:47;;;;;;;11.18;9.93;;;23.10;99.90;;;;;;5111218;28;20019;-73
2022/08/11 16:18:42;;;;;;;12.48;9.45;;;23.10;99.90;;;;;;5111222;28;20046;-73
2022/08/11 16:21:14;;;;;;;11.05;9.43;;;23.00;99.90;;;;;;5110657;28;20032;-73
2022/08/11 16:23:44;;;;;;;11.25;9.63;;;23.00;99.90;;;;;;5109801;28;20530;-73
2022/08/11 16:26:11;;;;;;;10.82;9.73;;;23.00;99.90;;;;;;5111049;28;20031;-74
2022/08/11 16:28:38;;;;;;;11.30;9.38;;;23.00;99.90;;;;;;5109207;28;20054;-74
2022/08/11 16:31:09;;;;;;;13.70;9.98;;;22.90;99.90;;;;;;5110934;28;20023;-74
2022/08/11 16:33:39;;;;;;;11.60;10.38;;;22.90;99.90;;;;;;5111127;28;20107;-74
2022/08/11 16:38:55;;;;;;;10.45;9.32;;;22.90;99.90;;;;;;5090788;28;20507;-74
2022/08/11 16:47:02;;;;;;;12.00;9.38;;;22.70;99.90;;;;;;5111095;28;20118;-74
2022/08/11 16:49:42;;;;;;;14.07;10.65;;;22.70;99.90;;;;;;5110805;28;20424;-74
2022/08/11 16:52:10;;;;;;;11.27;10.18;;;22.60;99.90;;;;;;5110679;28;20107;-73
2022/08/11 16:54:37;;;;;;;10.63;9.45;;;22.60;99.90;;;;;;5109679;28;20069;-75
2022/08/11 16:59:53;;;;;;;10.32;9.23;;;22.50;99.90;;;;;;5110416;28;20086;-74
2022/08/11 17:13:48;;;;;;;12.27;10.43;;;22.40;99.90;;;;;;5093110;28;20071;-74
2022/08/11 17:16:22;;;;;;;11.25;10.07;;;22.40;99.90;;;;;;5110752;28;20031;-73
2022/08/11 17:19:05;;;;;;;12.45;10.20;;;22.40;99.90;;;;;;5110688;28;20028;-72
2022/08/11 17:24:26;;;;;;;10.48;9.38;;;22.40;99.90;;;;;;5096186;28;20035;-73
2022/08/11 17:26:57;;;;;;;11.73;10.52;;;22.40;99.90;;;;;;5110414;28;20089;-73
2022/08/11 17:29:37;;;;;;;12.63;10.32;;;22.30;99.90;;;;;;5110450;28;20102;-73
2022/08/11 17:37:44;;;;;;;11.32;10.13;;;22.30;99.90;;;;;;5114774;28;20818;-73
2022/08/11 17:40:16;;;;;;;10.20;9.15;;;22.20;99.90;;;;;;5113120;28;20028;-73
2022/08/11 17:48:25;;;;;;;12.45;9.48;;;22.20;99.90;;;;;;5114244;28;20072;-74
2022/08/11 17:51:00;;;;;;;10.93;9.77;;;22.20;99.90;;;;;;5114325;28;20011;-73
2022/08/11 18:01:46;;;;;;;13.75;10.50;;;22.20;99.90;;;;;;5113913;28;20038;-74
2022/08/11 18:04:13;;;;;;;10.77;9.68;;;22.10;99.90;;;;;;5112438;28;20110;-72
2022/08/11 18:06:41;;;;;;;10.85;9.70;;;22.10;99.90;;;;;;5113491;28;20440;-73
